sensor_id;sensor_type;location;lat;lon;timestamp;P1;durP1;ratioP1;P2;durP2;ratioP2
21036;SDS011;10677;50.942;4.028;2023-05-27T00:01:32;18.27;;;4.32;;
21036;SDS011;10677;50.942;4.028;2023-05-27T00:03:58;16.58;;;4.10;;
21036;SDS011;10677;50.942;4.028;2023-05-27T00:06:23;14.10;;;4.47;;
21036;SDS011;10677;50.942;4.028;2023-05-27T00:08:49;13.77;;;3.97;;
21036;SDS011;10677;50.942;4.028;2023-05-27T00:11:15;18.98;;;4.68;;
21036;SDS011;10677;50.942;4.028;2023-05-27T00:13:40;17.70;;;4.70;;
21036;SDS011;10677;50.942;4.028;2023-05-27T00:16:06;21.30;;;5.47;;
21036;SDS011;10677;50.942;4.028;2023-05-27T00:18:32;19.00;;;4.07;;
21036;SDS011;10677;50.942;4.028;2023-05-27T00:20:58;18.88;;;4.22;;
21036;SDS011;10677;50.942;4.028;2023-05-27T00:23:24;15.75;;;5.00;;
21036;SDS011;10677;50.942;4.028;2023-05-27T00:25:50;19.60;;;4.82;;
21036;SDS011;10677;50.942;4.028;2023-05-27T00:28:15;24.23;;;5.00;;
21036;SDS011;10677;50.942;4.028;2023-05-27T00:30:41;14.80;;;4.50;;
21036;SDS011;10677;50.942;4.028;2023-05-27T00:33:07;19.48;;;4.20;;
21036;SDS011;10677;50.942;4.028;2023-05-27T00:35:32;22.50;;;4.88;;
21036;SDS011;10677;50.942;4.028;2023-05-27T00:37:58;18.67;;;4.13;;
21036;SDS011;10677;50.942;4.028;2023-05-27T00:40:25;12.82;;;3.85;;
21036;SDS011;10677;50.942;4.028;2023-05-27T00:42:54;20.30;;;4.32;;
21036;SDS011;10677;50.942;4.028;2023-05-27T00:45:20;21.27;;;5.00;;
21036;SDS011;10677;50.942;4.028;2023-05-27T00:47:46;18.88;;;4.38;;
21036;SDS011;10677;50.942;4.028;2023-05-27T00:50:12;16.55;;;4.75;;
21036;SDS011;10677;50.942;4.028;2023-05-27T00:52:37;15.75;;;4.07;;
21036;SDS011;10677;50.942;4.028;2023-05-27T00:55:03;20.63;;;4.40;;
21036;SDS011;10677;50.942;4.028;2023-05-27T00:57:30;15.15;;;3.97;;
21036;SDS011;10677;50.942;4.028;2023-05-27T00:59:56;20.50;;;5.78;;
21036;SDS011;10677;50.942;4.028;2023-05-27T01:02:23;14.63;;;4.00;;
21036;SDS011;10677;50.942;4.028;2023-05-27T01:04:48;12.63;;;4.57;;
21036;SDS011;10677;50.942;4.028;2023-05-27T01:07:17;19.35;;;4.35;;
21036;SDS011;10677;50.942;4.028;2023-05-27T01:12:37;16.65;;;4.97;;
21036;SDS011;10677;50.942;4.028;2023-05-27T01:15:23;12.77;;;4.18;;
21036;SDS011;10677;50.942;4.028;2023-05-27T01:17:49;15.15;;;4.50;;
21036;SDS011;10677;50.942;4.028;2023-05-27T01:20:20;15.50;;;4.55;;
21036;SDS011;10677;50.942;4.028;2023-05-27T01:22:45;16.70;;;4.18;;
21036;SDS011;10677;50.942;4.028;2023-05-27T01:25:12;17.33;;;4.82;;
21036;SDS011;10677;50.942;4.028;2023-05-27T01:27:39;14.20;;;4.28;;
21036;SDS011;10677;50.942;4.028;2023-05-27T01:30:05;18.70;;;4.55;;
21036;SDS011;10677;50.942;4.028;2023-05-27T01:37:35;19.52;;;5.10;;
21036;SDS011;10677;50.942;4.028;2023-05-27T01:40:04;16.23;;;4.60;;
21036;SDS011;10677;50.942;4.028;2023-05-27T01:42:32;18.45;;;4.68;;
21036;SDS011;10677;50.942;4.028;2023-05-27T01:45:00;21.05;;;4.80;;
21036;SDS011;10677;50.942;4.028;2023-05-27T01:47:29;20.10;;;5.43;;
21036;SDS011;10677;50.942;4.028;2023-05-27T01:49:56;22.05;;;4.90;;
21036;SDS011;10677;50.942;4.028;2023-05-27T01:52:22;16.98;;;4.15;;
21036;SDS011;10677;50.942;4.028;2023-05-27T01:54:47;20.75;;;5.50;;
21036;SDS011;10677;50.942;4.028;2023-05-27T01:57:13;22.17;;;5.43;;
21036;SDS011;10677;50.942;4.028;2023-05-27T01:59:38;19.05;;;5.18;;
21036;SDS011;10677;50.942;4.028;2023-05-27T02:02:04;20.83;;;5.90;;
21036;SDS011;10677;50.942;4.028;2023-05-27T02:04:30;23.67;;;5.63;;
21036;SDS011;10677;50.942;4.028;2023-05-27T02:06:56;20.02;;;4.68;;
21036;SDS011;10677;50.942;4.028;2023-05-27T02:09:22;22.30;;;5.47;;
21036;SDS011;10677;50.942;4.028;2023-05-27T02:11:47;21.27;;;5.05;;
21036;SDS011;10677;50.942;4.028;2023-05-27T02:14:13;20.55;;;5.30;;
21036;SDS011;10677;50.942;4.028;2023-05-27T02:16:39;22.30;;;4.95;;
21036;SDS011;10677;50.942;4.028;2023-05-27T02:19:05;19.98;;;5.45;;
21036;SDS011;10677;50.942;4.028;2023-05-27T02:21:31;18.13;;;5.00;;
21036;SDS011;10677;50.942;4.028;2023-05-27T02:23:57;19.08;;;5.28;;
21036;SDS011;10677;50.942;4.028;2023-05-27T02:26:23;21.15;;;4.38;;
21036;SDS011;10677;50.942;4.028;2023-05-27T02:28:49;18.05;;;5.35;;
21036;SDS011;10677;50.942;4.028;2023-05-27T02:31:15;16.67;;;5.00;;
21036;SDS011;10677;50.942;4.028;2023-05-27T02:33:40;14.05;;;4.90;;
21036;SDS011;10677;50.942;4.028;2023-05-27T02:36:06;21.65;;;5.25;;
21036;SDS011;10677;50.942;4.028;2023-05-27T02:38:32;15.55;;;5.00;;
21036;SDS011;10677;50.942;4.028;2023-05-27T02:40:58;17.92;;;5.20;;
21036;SDS011;10677;50.942;4.028;2023-05-27T02:43:23;16.48;;;5.55;;
21036;SDS011;10677;50.942;4.028;2023-05-27T02:45:49;18.02;;;5.20;;
21036;SDS011;10677;50.942;4.028;2023-05-27T02:48:15;20.20;;;5.22;;
21036;SDS011;10677;50.942;4.028;2023-05-27T02:50:40;17.90;;;5.00;;
21036;SDS011;10677;50.942;4.028;2023-05-27T02:53:06;19.98;;;5.20;;
21036;SDS011;10677;50.942;4.028;2023-05-27T02:55:32;23.17;;;5.13;;
21036;SDS011;10677;50.942;4.028;2023-05-27T02:57:57;24.92;;;5.35;;
21036;SDS011;10677;50.942;4.028;2023-05-27T03:00:23;20.27;;;5.50;;
21036;SDS011;10677;50.942;4.028;2023-05-27T03:02:48;19.85;;;5.15;;
21036;SDS011;10677;50.942;4.028;2023-05-27T03:05:14;16.42;;;5.10;;
21036;SDS011;10677;50.942;4.028;2023-05-27T03:07:40;21.98;;;4.85;;
21036;SDS011;10677;50.942;4.028;2023-05-27T03:10:06;15.95;;;5.15;;
21036;SDS011;10677;50.942;4.028;2023-05-27T03:12:33;16.67;;;4.72;;
21036;SDS011;10677;50.942;4.028;2023-05-27T03:14:59;17.98;;;5.25;;
21036;SDS011;10677;50.942;4.028;2023-05-27T03:17:24;16.88;;;4.70;;
21036;SDS011;10677;50.942;4.028;2023-05-27T03:19:50;20.25;;;5.22;;
21036;SDS011;10677;50.942;4.028;2023-05-27T03:22:16;17.90;;;4.85;;
21036;SDS011;10677;50.942;4.028;2023-05-27T03:24:42;19.25;;;5.47;;
21036;SDS011;10677;50.942;4.028;2023-05-27T03:27:08;17.00;;;6.00;;
21036;SDS011;10677;50.942;4.028;2023-05-27T03:29:33;19.85;;;5.15;;
21036;SDS011;10677;50.942;4.028;2023-05-27T03:32:00;19.05;;;5.10;;
21036;SDS011;10677;50.942;4.028;2023-05-27T03:34:25;23.15;;;5.35;;
21036;SDS011;10677;50.942;4.028;2023-05-27T03:36:51;16.10;;;5.18;;
21036;SDS011;10677;50.942;4.028;2023-05-27T03:39:16;18.98;;;6.13;;
21036;SDS011;10677;50.942;4.028;2023-05-27T03:41:42;24.27;;;5.47;;
21036;SDS011;10677;50.942;4.028;2023-05-27T03:44:09;16.33;;;5.90;;
21036;SDS011;10677;50.942;4.028;2023-05-27T03:46:35;17.75;;;5.10;;
21036;SDS011;10677;50.942;4.028;2023-05-27T03:49:01;24.63;;;5.32;;
21036;SDS011;10677;50.942;4.028;2023-05-27T03:51:27;22.90;;;5.07;;
21036;SDS011;10677;50.942;4.028;2023-05-27T03:53:53;21.85;;;5.57;;
21036;SDS011;10677;50.942;4.028;2023-05-27T03:56:18;20.50;;;6.07;;
21036;SDS011;10677;50.942;4.028;2023-05-27T03:58:44;20.92;;;6.10;;
21036;SDS011;10677;50.942;4.028;2023-05-27T04:01:10;13.77;;;5.40;;
21036;SDS011;10677;50.942;4.028;2023-05-27T04:03:36;21.48;;;5.40;;
21036;SDS011;10677;50.942;4.028;2023-05-27T04:06:02;20.25;;;5.50;;
21036;SDS011;10677;50.942;4.028;2023-05-27T04:08:28;22.17;;;5.65;;
21036;SDS011;10677;50.942;4.028;2023-05-27T04:10:54;21.35;;;5.53;;
21036;SDS011;10677;50.942;4.028;2023-05-27T04:13:20;16.75;;;5.03;;
21036;SDS011;10677;50.942;4.028;2023-05-27T04:15:46;25.45;;;4.97;;
21036;SDS011;10677;50.942;4.028;2023-05-27T04:18:13;25.27;;;5.25;;
21036;SDS011;10677;50.942;4.028;2023-05-27T04:20:39;18.00;;;4.97;;
21036;SDS011;10677;50.942;4.028;2023-05-27T04:23:08;15.15;;;5.28;;
21036;SDS011;10677;50.942;4.028;2023-05-27T04:25:35;26.02;;;6.22;;
21036;SDS011;10677;50.942;4.028;2023-05-27T04:28:01;19.05;;;6.30;;
21036;SDS011;10677;50.942;4.028;2023-05-27T04:30:30;24.02;;;5.85;;
21036;SDS011;10677;50.942;4.028;2023-05-27T04:32:56;17.20;;;5.82;;
21036;SDS011;10677;50.942;4.028;2023-05-27T04:35:23;24.40;;;5.70;;
21036;SDS011;10677;50.942;4.028;2023-05-27T04:37:48;16.58;;;5.20;;
21036;SDS011;10677;50.942;4.028;2023-05-27T04:40:14;18.10;;;5.82;;
21036;SDS011;10677;50.942;4.028;2023-05-27T04:42:40;20.50;;;5.13;;
21036;SDS011;10677;50.942;4.028;2023-05-27T04:45:06;19.15;;;5.70;;
21036;SDS011;10677;50.942;4.028;2023-05-27T04:47:33;16.90;;;5.35;;
21036;SDS011;10677;50.942;4.028;2023-05-27T04:50:02;20.33;;;5.90;;
21036;SDS011;10677;50.942;4.028;2023-05-27T04:52:29;24.35;;;6.40;;
21036;SDS011;10677;50.942;4.028;2023-05-27T04:54:54;22.77;;;6.28;;
21036;SDS011;10677;50.942;4.028;2023-05-27T04:57:23;18.38;;;5.35;;
21036;SDS011;10677;50.942;4.028;2023-05-27T04:59:48;17.20;;;5.70;;
21036;SDS011;10677;50.942;4.028;2023-05-27T05:02:29;18.80;;;6.05;;
21036;SDS011;10677;50.942;4.028;2023-05-27T05:05:03;16.92;;;5.88;;
21036;SDS011;10677;50.942;4.028;2023-05-27T05:07:30;23.80;;;5.95;;
21036;SDS011;10677;50.942;4.028;2023-05-27T05:09:56;20.75;;;6.00;;
21036;SDS011;10677;50.942;4.028;2023-05-27T05:12:22;18.42;;;5.25;;
21036;SDS011;10677;50.942;4.028;2023-05-27T05:14:49;19.42;;;5.35;;
21036;SDS011;10677;50.942;4.028;2023-05-27T05:17:15;18.17;;;5.38;;
21036;SDS011;10677;50.942;4.028;2023-05-27T05:19:41;20.17;;;6.00;;
21036;SDS011;10677;50.942;4.028;2023-05-27T05:22:06;24.33;;;6.13;;
21036;SDS011;10677;50.942;4.028;2023-05-27T05:24:32;20.25;;;5.68;;
21036;SDS011;10677;50.942;4.028;2023-05-27T05:26:58;22.33;;;6.10;;
21036;SDS011;10677;50.942;4.028;2023-05-27T05:29:23;18.63;;;5.93;;
21036;SDS011;10677;50.942;4.028;2023-05-27T05:31:49;22.35;;;6.22;;
21036;SDS011;10677;50.942;4.028;2023-05-27T05:34:14;21.80;;;6.07;;
21036;SDS011;10677;50.942;4.028;2023-05-27T05:36:40;25.23;;;6.53;;
21036;SDS011;10677;50.942;4.028;2023-05-27T05:39:07;19.63;;;5.97;;
21036;SDS011;10677;50.942;4.028;2023-05-27T05:41:33;20.05;;;6.50;;
21036;SDS011;10677;50.942;4.028;2023-05-27T05:43:59;17.92;;;6.00;;
21036;SDS011;10677;50.942;4.028;2023-05-27T05:46:24;16.95;;;5.65;;
21036;SDS011;10677;50.942;4.028;2023-05-27T05:48:53;16.90;;;5.78;;
21036;SDS011;10677;50.942;4.028;2023-05-27T05:51:19;21.95;;;6.57;;
21036;SDS011;10677;50.942;4.028;2023-05-27T05:53:44;20.98;;;6.80;;
21036;SDS011;10677;50.942;4.028;2023-05-27T05:56:10;23.48;;;6.38;;
21036;SDS011;10677;50.942;4.028;2023-05-27T05:58:36;21.60;;;6.38;;
21036;SDS011;10677;50.942;4.028;2023-05-27T06:01:01;21.63;;;6.28;;
21036;SDS011;10677;50.942;4.028;2023-05-27T06:03:27;21.40;;;5.60;;
21036;SDS011;10677;50.942;4.028;2023-05-27T06:05:53;19.73;;;6.38;;
21036;SDS011;10677;50.942;4.028;2023-05-27T06:08:19;21.50;;;6.03;;
21036;SDS011;10677;50.942;4.028;2023-05-27T06:10:44;23.08;;;6.63;;
21036;SDS011;10677;50.942;4.028;2023-05-27T06:13:10;20.77;;;6.72;;
21036;SDS011;10677;50.942;4.028;2023-05-27T06:15:36;21.83;;;7.40;;
21036;SDS011;10677;50.942;4.028;2023-05-27T06:18:02;19.33;;;6.90;;
21036;SDS011;10677;50.942;4.028;2023-05-27T06:20:28;21.27;;;6.80;;
21036;SDS011;10677;50.942;4.028;2023-05-27T06:22:54;25.77;;;7.07;;
21036;SDS011;10677;50.942;4.028;2023-05-27T06:25:20;17.98;;;6.25;;
21036;SDS011;10677;50.942;4.028;2023-05-27T06:27:46;22.63;;;7.32;;
21036;SDS011;10677;50.942;4.028;2023-05-27T06:30:11;20.48;;;6.43;;
21036;SDS011;10677;50.942;4.028;2023-05-27T06:32:37;21.00;;;6.05;;
21036;SDS011;10677;50.942;4.028;2023-05-27T06:35:03;16.35;;;6.65;;
21036;SDS011;10677;50.942;4.028;2023-05-27T06:37:29;17.70;;;6.25;;
21036;SDS011;10677;50.942;4.028;2023-05-27T06:39:55;19.88;;;6.22;;
21036;SDS011;10677;50.942;4.028;2023-05-27T06:42:20;25.38;;;7.43;;
21036;SDS011;10677;50.942;4.028;2023-05-27T06:44:47;21.98;;;7.05;;
21036;SDS011;10677;50.942;4.028;2023-05-27T06:47:13;21.60;;;6.05;;
21036;SDS011;10677;50.942;4.028;2023-05-27T06:49:39;18.45;;;5.97;;
21036;SDS011;10677;50.942;4.028;2023-05-27T06:52:04;23.65;;;6.53;;
21036;SDS011;10677;50.942;4.028;2023-05-27T06:54:31;19.42;;;6.68;;
21036;SDS011;10677;50.942;4.028;2023-05-27T06:56:57;17.52;;;6.10;;
21036;SDS011;10677;50.942;4.028;2023-05-27T06:59:23;23.33;;;6.18;;
21036;SDS011;10677;50.942;4.028;2023-05-27T07:01:48;17.77;;;6.45;;
21036;SDS011;10677;50.942;4.028;2023-05-27T07:04:15;18.30;;;5.72;;
21036;SDS011;10677;50.942;4.028;2023-05-27T07:06:41;19.88;;;6.78;;
21036;SDS011;10677;50.942;4.028;2023-05-27T07:09:07;24.02;;;6.15;;
21036;SDS011;10677;50.942;4.028;2023-05-27T07:11:33;20.38;;;5.65;;
21036;SDS011;10677;50.942;4.028;2023-05-27T07:13:59;21.92;;;5.53;;
21036;SDS011;10677;50.942;4.028;2023-05-27T07:16:25;18.70;;;5.63;;
21036;SDS011;10677;50.942;4.028;2023-05-27T07:18:50;21.35;;;6.47;;
21036;SDS011;10677;50.942;4.028;2023-05-27T07:21:16;18.67;;;5.50;;
21036;SDS011;10677;50.942;4.028;2023-05-27T07:23:42;18.65;;;6.13;;
21036;SDS011;10677;50.942;4.028;2023-05-27T07:26:08;23.85;;;6.63;;
21036;SDS011;10677;50.942;4.028;2023-05-27T07:28:33;17.77;;;5.78;;
21036;SDS011;10677;50.942;4.028;2023-05-27T07:30:59;17.77;;;6.20;;
21036;SDS011;10677;50.942;4.028;2023-05-27T07:33:25;22.90;;;6.78;;
21036;SDS011;10677;50.942;4.028;2023-05-27T07:35:50;15.80;;;5.75;;
21036;SDS011;10677;50.942;4.028;2023-05-27T07:38:16;17.95;;;5.80;;
21036;SDS011;10677;50.942;4.028;2023-05-27T07:40:42;17.15;;;6.20;;
21036;SDS011;10677;50.942;4.028;2023-05-27T07:43:07;22.80;;;6.50;;
21036;SDS011;10677;50.942;4.028;2023-05-27T07:45:33;18.38;;;6.57;;
21036;SDS011;10677;50.942;4.028;2023-05-27T07:47:58;19.08;;;6.22;;
21036;SDS011;10677;50.942;4.028;2023-05-27T07:50:24;16.92;;;6.30;;
21036;SDS011;10677;50.942;4.028;2023-05-27T07:52:50;17.35;;;6.18;;
21036;SDS011;10677;50.942;4.028;2023-05-27T07:55:15;16.70;;;6.20;;
21036;SDS011;10677;50.942;4.028;2023-05-27T07:57:41;18.90;;;6.28;;
21036;SDS011;10677;50.942;4.028;2023-05-27T08:00:08;19.98;;;5.63;;
21036;SDS011;10677;50.942;4.028;2023-05-27T08:02:34;18.73;;;6.20;;
21036;SDS011;10677;50.942;4.028;2023-05-27T08:05:00;20.73;;;6.47;;
21036;SDS011;10677;50.942;4.028;2023-05-27T08:07:26;20.83;;;6.25;;
21036;SDS011;10677;50.942;4.028;2023-05-27T08:09:52;15.82;;;5.82;;
21036;SDS011;10677;50.942;4.028;2023-05-27T08:12:18;18.10;;;6.38;;
21036;SDS011;10677;50.942;4.028;2023-05-27T08:14:43;20.30;;;6.40;;
21036;SDS011;10677;50.942;4.028;2023-05-27T08:17:09;19.25;;;6.47;;
21036;SDS011;10677;50.942;4.028;2023-05-27T08:19:35;20.75;;;6.50;;
21036;SDS011;10677;50.942;4.028;2023-05-27T08:22:01;16.77;;;6.03;;
21036;SDS011;10677;50.942;4.028;2023-05-27T08:24:28;20.33;;;6.32;;
21036;SDS011;10677;50.942;4.028;2023-05-27T08:26:57;14.48;;;5.55;;
21036;SDS011;10677;50.942;4.028;2023-05-27T08:29:22;20.70;;;5.88;;
21036;SDS011;10677;50.942;4.028;2023-05-27T08:31:50;16.48;;;5.47;;
21036;SDS011;10677;50.942;4.028;2023-05-27T08:34:19;19.27;;;6.10;;
21036;SDS011;10677;50.942;4.028;2023-05-27T08:36:45;17.13;;;6.18;;
21036;SDS011;10677;50.942;4.028;2023-05-27T08:39:10;19.02;;;7.22;;
21036;SDS011;10677;50.942;4.028;2023-05-27T08:41:37;15.23;;;5.90;;
21036;SDS011;10677;50.942;4.028;2023-05-27T08:44:03;21.75;;;5.93;;
21036;SDS011;10677;50.942;4.028;2023-05-27T08:46:29;18.25;;;6.20;;
21036;SDS011;10677;50.942;4.028;2023-05-27T08:48:56;17.35;;;5.35;;
21036;SDS011;10677;50.942;4.028;2023-05-27T08:51:23;17.90;;;5.80;;
21036;SDS011;10677;50.942;4.028;2023-05-27T08:53:51;22.50;;;5.53;;
21036;SDS011;10677;50.942;4.028;2023-05-27T08:56:18;18.30;;;6.10;;
21036;SDS011;10677;50.942;4.028;2023-05-27T08:58:46;21.50;;;6.88;;
21036;SDS011;10677;50.942;4.028;2023-05-27T09:01:17;14.68;;;5.78;;
21036;SDS011;10677;50.942;4.028;2023-05-27T09:03:43;17.33;;;5.75;;
21036;SDS011;10677;50.942;4.028;2023-05-27T09:06:10;22.77;;;6.20;;
21036;SDS011;10677;50.942;4.028;2023-05-27T09:08:36;17.73;;;6.28;;
21036;SDS011;10677;50.942;4.028;2023-05-27T09:11:03;14.18;;;5.57;;
21036;SDS011;10677;50.942;4.028;2023-05-27T09:13:32;15.90;;;6.03;;
21036;SDS011;10677;50.942;4.028;2023-05-27T09:16:02;16.63;;;6.15;;
21036;SDS011;10677;50.942;4.028;2023-05-27T09:18:29;19.98;;;6.50;;
21036;SDS011;10677;50.942;4.028;2023-05-27T09:20:56;18.65;;;6.22;;
21036;SDS011;10677;50.942;4.028;2023-05-27T09:23:23;14.80;;;5.90;;
21036;SDS011;10677;50.942;4.028;2023-05-27T09:25:49;18.90;;;5.72;;
21036;SDS011;10677;50.942;4.028;2023-05-27T09:28:22;14.60;;;5.25;;
21036;SDS011;10677;50.942;4.028;2023-05-27T09:30:58;16.88;;;6.07;;
21036;SDS011;10677;50.942;4.028;2023-05-27T09:33:30;21.60;;;6.53;;
21036;SDS011;10677;50.942;4.028;2023-05-27T09:35:58;18.30;;;6.43;;
21036;SDS011;10677;50.942;4.028;2023-05-27T09:38:27;24.38;;;6.80;;
21036;SDS011;10677;50.942;4.028;2023-05-27T09:40:53;21.67;;;6.15;;
21036;SDS011;10677;50.942;4.028;2023-05-27T09:43:19;20.02;;;5.30;;
21036;SDS011;10677;50.942;4.028;2023-05-27T09:45:45;17.08;;;5.40;;
21036;SDS011;10677;50.942;4.028;2023-05-27T09:48:11;15.55;;;6.05;;
21036;SDS011;10677;50.942;4.028;2023-05-27T09:50:40;15.90;;;5.30;;
21036;SDS011;10677;50.942;4.028;2023-05-27T09:53:06;18.50;;;5.28;;
21036;SDS011;10677;50.942;4.028;2023-05-27T09:55:33;17.80;;;5.97;;
21036;SDS011;10677;50.942;4.028;2023-05-27T09:57:59;14.35;;;5.40;;
21036;SDS011;10677;50.942;4.028;2023-05-27T10:00:26;19.10;;;5.90;;
21036;SDS011;10677;50.942;4.028;2023-05-27T10:02:53;18.60;;;6.03;;
21036;SDS011;10677;50.942;4.028;2023-05-27T10:05:22;17.45;;;6.03;;
21036;SDS011;10677;50.942;4.028;2023-05-27T10:07:48;16.80;;;5.80;;
21036;SDS011;10677;50.942;4.028;2023-05-27T10:10:17;18.45;;;5.97;;
21036;SDS011;10677;50.942;4.028;2023-05-27T10:12:44;17.58;;;5.57;;
21036;SDS011;10677;50.942;4.028;2023-05-27T10:15:21;15.35;;;5.80;;
21036;SDS011;10677;50.942;4.028;2023-05-27T10:17:54;14.32;;;5.57;;
21036;SDS011;10677;50.942;4.028;2023-05-27T10:20:29;15.50;;;5.07;;
21036;SDS011;10677;50.942;4.028;2023-05-27T10:22:57;13.98;;;4.70;;
21036;SDS011;10677;50.942;4.028;2023-05-27T10:31:30;20.17;;;5.90;;
21036;SDS011;10677;50.942;4.028;2023-05-27T10:33:54;12.80;;;4.50;;
21036;SDS011;10677;50.942;4.028;2023-05-27T10:36:23;15.13;;;5.30;;
21036;SDS011;10677;50.942;4.028;2023-05-27T10:39:11;17.05;;;4.85;;
21036;SDS011;10677;50.942;4.028;2023-05-27T10:41:50;13.52;;;5.35;;
21036;SDS011;10677;50.942;4.028;2023-05-27T10:44:26;17.77;;;5.80;;
21036;SDS011;10677;50.942;4.028;2023-05-27T10:46:59;16.02;;;5.95;;
21036;SDS011;10677;50.942;4.028;2023-05-27T10:49:46;13.32;;;5.43;;
21036;SDS011;10677;50.942;4.028;2023-05-27T10:52:13;13.25;;;5.43;;
21036;SDS011;10677;50.942;4.028;2023-05-27T10:54:41;14.07;;;5.22;;
21036;SDS011;10677;50.942;4.028;2023-05-27T10:57:09;20.83;;;5.78;;
21036;SDS011;10677;50.942;4.028;2023-05-27T10:59:48;16.50;;;4.85;;
21036;SDS011;10677;50.942;4.028;2023-05-27T11:02:14;12.35;;;5.30;;
21036;SDS011;10677;50.942;4.028;2023-05-27T11:04:41;18.42;;;5.32;;
21036;SDS011;10677;50.942;4.028;2023-05-27T11:07:07;18.17;;;5.28;;
21036;SDS011;10677;50.942;4.028;2023-05-27T11:12:18;17.40;;;5.32;;
21036;SDS011;10677;50.942;4.028;2023-05-27T11:14:46;18.42;;;5.32;;
21036;SDS011;10677;50.942;4.028;2023-05-27T11:17:16;16.48;;;6.13;;
21036;SDS011;10677;50.942;4.028;2023-05-27T11:19:42;18.40;;;5.07;;
21036;SDS011;10677;50.942;4.028;2023-05-27T11:22:12;13.70;;;4.72;;
21036;SDS011;10677;50.942;4.028;2023-05-27T11:24:39;10.38;;;4.40;;
21036;SDS011;10677;50.942;4.028;2023-05-27T11:27:12;12.43;;;4.80;;
21036;SDS011;10677;50.942;4.028;2023-05-27T11:29:39;16.45;;;4.95;;
21036;SDS011;10677;50.942;4.028;2023-05-27T11:32:15;13.23;;;4.78;;
21036;SDS011;10677;50.942;4.028;2023-05-27T11:34:43;13.30;;;4.05;;
21036;SDS011;10677;50.942;4.028;2023-05-27T11:37:10;16.17;;;4.20;;
21036;SDS011;10677;50.942;4.028;2023-05-27T11:39:36;15.68;;;4.30;;
21036;SDS011;10677;50.942;4.028;2023-05-27T11:42:04;14.98;;;4.22;;
21036;SDS011;10677;50.942;4.028;2023-05-27T11:44:33;11.80;;;4.13;;
21036;SDS011;10677;50.942;4.028;2023-05-27T11:46:59;14.23;;;4.25;;
21036;SDS011;10677;50.942;4.028;2023-05-27T11:49:26;14.82;;;4.93;;
21036;SDS011;10677;50.942;4.028;2023-05-27T11:51:56;17.65;;;5.10;;
21036;SDS011;10677;50.942;4.028;2023-05-27T11:56:50;14.27;;;4.57;;
21036;SDS011;10677;50.942;4.028;2023-05-27T11:59:17;16.33;;;4.75;;
21036;SDS011;10677;50.942;4.028;2023-05-27T12:01:43;16.27;;;4.53;;
21036;SDS011;10677;50.942;4.028;2023-05-27T12:04:09;17.85;;;4.55;;
21036;SDS011;10677;50.942;4.028;2023-05-27T12:06:35;16.83;;;4.60;;
21036;SDS011;10677;50.942;4.028;2023-05-27T12:09:03;19.23;;;5.30;;
21036;SDS011;10677;50.942;4.028;2023-05-27T12:11:30;15.20;;;4.72;;
21036;SDS011;10677;50.942;4.028;2023-05-27T12:13:56;14.48;;;4.65;;
21036;SDS011;10677;50.942;4.028;2023-05-27T12:16:22;11.48;;;4.30;;
21036;SDS011;10677;50.942;4.028;2023-05-27T12:18:48;11.93;;;3.83;;
21036;SDS011;10677;50.942;4.028;2023-05-27T12:21:14;10.90;;;3.75;;
21036;SDS011;10677;50.942;4.028;2023-05-27T12:23:40;14.50;;;4.15;;
21036;SDS011;10677;50.942;4.028;2023-05-27T12:26:06;13.77;;;4.07;;
21036;SDS011;10677;50.942;4.028;2023-05-27T12:28:32;17.23;;;4.15;;
21036;SDS011;10677;50.942;4.028;2023-05-27T12:30:57;13.05;;;3.88;;
21036;SDS011;10677;50.942;4.028;2023-05-27T12:33:23;12.85;;;3.90;;
21036;SDS011;10677;50.942;4.028;2023-05-27T12:35:49;12.40;;;4.07;;
21036;SDS011;10677;50.942;4.028;2023-05-27T12:38:15;12.15;;;4.18;;
21036;SDS011;10677;50.942;4.028;2023-05-27T12:40:41;14.48;;;4.72;;
21036;SDS011;10677;50.942;4.028;2023-05-27T12:43:06;11.63;;;3.45;;
21036;SDS011;10677;50.942;4.028;2023-05-27T12:45:32;14.57;;;4.85;;
21036;SDS011;10677;50.942;4.028;2023-05-27T12:47:58;15.27;;;3.88;;
21036;SDS011;10677;50.942;4.028;2023-05-27T12:50:24;15.75;;;4.28;;
21036;SDS011;10677;50.942;4.028;2023-05-27T12:52:50;14.05;;;3.63;;
21036;SDS011;10677;50.942;4.028;2023-05-27T12:55:17;13.13;;;3.65;;
21036;SDS011;10677;50.942;4.028;2023-05-27T12:57:48;9.63;;;3.85;;
21036;SDS011;10677;50.942;4.028;2023-05-27T13:00:15;12.88;;;3.92;;
21036;SDS011;10677;50.942;4.028;2023-05-27T13:02:42;13.13;;;4.50;;
21036;SDS011;10677;50.942;4.028;2023-05-27T13:05:08;12.52;;;3.80;;
21036;SDS011;10677;50.942;4.028;2023-05-27T13:07:34;15.45;;;4.85;;
21036;SDS011;10677;50.942;4.028;2023-05-27T13:10:03;14.13;;;4.00;;
21036;SDS011;10677;50.942;4.028;2023-05-27T13:12:31;12.20;;;4.00;;
21036;SDS011;10677;50.942;4.028;2023-05-27T13:14:57;13.65;;;3.67;;
21036;SDS011;10677;50.942;4.028;2023-05-27T13:17:24;11.68;;;4.00;;
21036;SDS011;10677;50.942;4.028;2023-05-27T13:19:49;10.38;;;4.13;;
21036;SDS011;10677;50.942;4.028;2023-05-27T13:22:15;12.45;;;3.88;;
21036;SDS011;10677;50.942;4.028;2023-05-27T13:24:41;12.55;;;4.10;;
21036;SDS011;10677;50.942;4.028;2023-05-27T13:27:07;11.73;;;3.50;;
21036;SDS011;10677;50.942;4.028;2023-05-27T13:29:33;11.57;;;3.95;;
21036;SDS011;10677;50.942;4.028;2023-05-27T13:31:59;14.40;;;3.78;;
21036;SDS011;10677;50.942;4.028;2023-05-27T13:34:25;13.45;;;3.80;;
21036;SDS011;10677;50.942;4.028;2023-05-27T13:36:53;13.80;;;4.47;;
21036;SDS011;10677;50.942;4.028;2023-05-27T13:39:18;9.48;;;3.80;;
21036;SDS011;10677;50.942;4.028;2023-05-27T13:41:44;14.20;;;3.67;;
21036;SDS011;10677;50.942;4.028;2023-05-27T13:44:10;11.57;;;4.47;;
21036;SDS011;10677;50.942;4.028;2023-05-27T13:46:35;13.43;;;4.10;;
21036;SDS011;10677;50.942;4.028;2023-05-27T13:49:01;10.38;;;3.67;;
21036;SDS011;10677;50.942;4.028;2023-05-27T13:51:29;14.90;;;3.85;;
21036;SDS011;10677;50.942;4.028;2023-05-27T13:53:55;11.27;;;3.75;;
21036;SDS011;10677;50.942;4.028;2023-05-27T13:56:21;10.85;;;3.65;;
21036;SDS011;10677;50.942;4.028;2023-05-27T13:58:47;10.13;;;3.70;;
21036;SDS011;10677;50.942;4.028;2023-05-27T14:01:14;11.20;;;4.03;;
21036;SDS011;10677;50.942;4.028;2023-05-27T14:03:40;10.90;;;3.40;;
21036;SDS011;10677;50.942;4.028;2023-05-27T14:06:05;10.00;;;3.47;;
21036;SDS011;10677;50.942;4.028;2023-05-27T14:08:32;14.45;;;3.83;;
21036;SDS011;10677;50.942;4.028;2023-05-27T14:10:58;11.80;;;3.83;;
21036;SDS011;10677;50.942;4.028;2023-05-27T14:13:24;11.75;;;3.80;;
21036;SDS011;10677;50.942;4.028;2023-05-27T14:15:53;13.30;;;3.45;;
21036;SDS011;10677;50.942;4.028;2023-05-27T14:18:18;11.45;;;3.55;;
21036;SDS011;10677;50.942;4.028;2023-05-27T14:20:44;10.10;;;3.50;;
21036;SDS011;10677;50.942;4.028;2023-05-27T14:23:10;11.82;;;4.43;;
21036;SDS011;10677;50.942;4.028;2023-05-27T14:25:37;10.60;;;3.78;;
21036;SDS011;10677;50.942;4.028;2023-05-27T14:28:03;10.23;;;3.30;;
21036;SDS011;10677;50.942;4.028;2023-05-27T14:30:31;9.02;;;3.90;;
21036;SDS011;10677;50.942;4.028;2023-05-27T14:33:02;10.68;;;3.90;;
21036;SDS011;10677;50.942;4.028;2023-05-27T14:35:34;12.18;;;3.85;;
21036;SDS011;10677;50.942;4.028;2023-05-27T14:38:01;10.65;;;3.63;;
21036;SDS011;10677;50.942;4.028;2023-05-27T14:40:27;12.10;;;3.75;;
21036;SDS011;10677;50.942;4.028;2023-05-27T14:42:53;10.35;;;3.90;;
21036;SDS011;10677;50.942;4.028;2023-05-27T14:45:19;13.60;;;3.72;;
21036;SDS011;10677;50.942;4.028;2023-05-27T14:47:46;14.20;;;3.72;;
21036;SDS011;10677;50.942;4.028;2023-05-27T14:50:12;11.10;;;3.55;;
21036;SDS011;10677;50.942;4.028;2023-05-27T14:52:37;9.98;;;4.00;;